createdAt,value
2022-11-22T00:01:02.344Z,6.65
2022-11-22T00:04:28.332Z,7.00
2022-11-22T00:07:28.413Z,6.83
2022-11-22T00:10:40.346Z,6.43
2022-11-22T00:13:40.435Z,6.90
2022-11-22T00:16:53.336Z,6.77
2022-11-22T00:20:06.354Z,7.05
2022-11-22T00:23:21.360Z,7.03
2022-11-22T00:26:22.417Z,7.50
2022-11-22T00:29:37.484Z,7.10
2022-11-22T00:32:49.398Z,6.93
2022-11-22T00:36:16.480Z,6.55
2022-11-22T00:39:16.469Z,7.83
2022-11-22T00:42:29.512Z,7.45
2022-11-22T00:45:29.469Z,6.87
2022-11-22T00:48:53.488Z,7.10
2022-11-22T00:52:07.485Z,7.20
2022-11-22T00:55:20.569Z,6.37
2022-11-22T00:58:20.462Z,7.20
2022-11-22T01:01:32.580Z,7.53
2022-11-22T01:04:32.532Z,7.23
2022-11-22T01:07:58.504Z,7.20
2022-11-22T01:10:58.556Z,6.77
2022-11-22T01:14:10.556Z,7.95
2022-11-22T01:17:10.648Z,7.20
2022-11-22T01:20:23.501Z,7.23
2022-11-22T01:23:37.561Z,7.07
2022-11-22T01:26:49.605Z,7.70
2022-11-22T01:29:50.621Z,8.10
2022-11-22T01:33:17.608Z,7.40
2022-11-22T01:36:18.871Z,7.57
2022-11-22T01:39:44.678Z,7.20
2022-11-22T01:43:12.641Z,7.80
2022-11-22T01:46:39.604Z,7.20
2022-11-22T01:49:51.652Z,7.37
2022-11-22T01:53:03.680Z,7.27
2022-11-22T01:56:17.678Z,6.35
2022-11-22T01:59:41.706Z,6.85
2022-11-22T02:02:53.684Z,7.27
2022-11-22T02:06:17.743Z,6.50
2022-11-22T02:09:29.897Z,7.80
2022-11-22T02:12:55.723Z,6.90
2022-11-22T02:15:55.727Z,7.43
2022-11-22T02:19:19.758Z,6.50
2022-11-22T02:22:31.772Z,6.40
2022-11-22T02:25:55.731Z,6.53
2022-11-22T02:29:09.776Z,6.43
2022-11-22T02:32:24.741Z,7.07
2022-11-22T02:35:41.800Z,5.93
2022-11-22T02:39:06.811Z,6.70
2022-11-22T02:42:18.829Z,6.87
2022-11-22T02:45:43.834Z,6.17
2022-11-22T02:48:43.806Z,6.93
2022-11-22T02:51:56.875Z,6.23
2022-11-22T02:54:56.866Z,7.33
2022-11-22T02:58:20.879Z,6.00
2022-11-22T03:01:33.962Z,6.23
2022-11-22T03:04:46.860Z,6.17
2022-11-22T03:07:46.964Z,6.63
2022-11-22T03:10:59.840Z,6.40
2022-11-22T03:13:59.971Z,6.43
2022-11-22T03:17:25.921Z,6.13
2022-11-22T03:20:37.977Z,5.60
2022-11-22T03:24:01.986Z,5.40
2022-11-22T03:27:14.009Z,5.87
2022-11-22T03:30:27.963Z,5.33
2022-11-22T03:33:41.999Z,6.10
2022-11-22T03:36:53.943Z,5.85
2022-11-22T03:39:53.966Z,5.57
2022-11-22T03:43:05.964Z,6.47
2022-11-22T03:46:18.096Z,5.37
2022-11-22T03:49:44.036Z,6.10
2022-11-22T03:52:44.057Z,5.20
2022-11-22T03:55:56.010Z,5.47
2022-11-22T03:59:08.112Z,5.45
2022-11-22T04:02:21.040Z,5.07
2022-11-22T04:05:47.041Z,5.20
2022-11-22T04:08:47.197Z,5.40
2022-11-22T04:11:59.101Z,5.20
2022-11-22T04:15:05.096Z,4.93
2022-11-22T04:18:34.098Z,5.70
2022-11-22T04:21:47.136Z,5.23
2022-11-22T04:25:04.771Z,5.40
2022-11-22T04:28:05.087Z,5.13
2022-11-22T04:31:22.912Z,5.30
2022-11-22T04:34:23.180Z,5.00
2022-11-22T04:37:49.217Z,4.65
2022-11-22T04:41:01.189Z,5.40
2022-11-22T04:44:22.069Z,5.17
2022-11-22T04:47:40.131Z,4.73
2022-11-22T04:51:12.850Z,4.63
2022-11-22T04:54:28.182Z,4.57
2022-11-22T04:57:40.250Z,5.70
2022-11-22T05:00:52.427Z,4.35
2022-11-22T05:04:04.273Z,4.47
2022-11-22T05:07:04.315Z,5.03
2022-11-22T05:10:30.255Z,4.83
2022-11-22T05:13:42.296Z,4.90
2022-11-22T05:16:54.383Z,4.50
2022-11-22T05:19:54.342Z,4.03
2022-11-22T05:23:12.143Z,4.10
2022-11-22T05:26:26.479Z,4.33
2022-11-22T05:29:41.346Z,4.40
2022-11-22T05:32:54.312Z,4.73
2022-11-22T05:36:18.348Z,4.55
2022-11-22T05:39:18.395Z,5.10
2022-11-22T05:42:44.351Z,3.63
2022-11-22T05:45:44.390Z,4.23
2022-11-22T05:49:08.441Z,3.50
2022-11-22T05:52:08.424Z,3.97
2022-11-22T05:55:32.449Z,4.70
2022-11-22T05:58:45.393Z,4.30
2022-11-22T06:01:57.498Z,3.90
2022-11-22T06:05:10.511Z,4.63
2022-11-22T06:08:22.441Z,3.90
2022-11-22T06:11:47.496Z,4.27
2022-11-22T06:15:01.445Z,4.37
2022-11-22T06:18:13.470Z,4.13
2022-11-22T06:21:25.507Z,3.90
2022-11-22T06:24:37.470Z,3.70
2022-11-22T06:27:40.559Z,4.27
2022-11-22T06:31:06.535Z,3.70
2022-11-22T06:34:18.656Z,3.97
2022-11-22T06:37:31.539Z,4.07
2022-11-22T06:40:32.520Z,3.43
2022-11-22T06:43:57.527Z,4.25
2022-11-22T06:47:14.306Z,3.90
2022-11-22T06:50:27.573Z,4.00
2022-11-22T06:53:46.246Z,3.63
2022-11-22T06:56:52.605Z,3.43
2022-11-22T06:59:52.632Z,3.40
2022-11-22T07:03:18.641Z,3.70
2022-11-22T07:06:30.600Z,4.17
2022-11-22T07:09:42.605Z,3.53
2022-11-22T07:12:42.676Z,3.70
2022-11-22T07:16:06.629Z,4.10
2022-11-22T07:19:23.679Z,4.40
2022-11-22T07:22:35.649Z,3.67
2022-11-22T07:25:35.690Z,3.63
2022-11-22T07:28:59.747Z,3.23
2022-11-22T07:31:59.688Z,3.10
2022-11-22T07:35:24.670Z,2.93
2022-11-22T07:38:24.704Z,2.95
2022-11-22T07:41:48.747Z,3.30
2022-11-22T07:44:51.693Z,2.70
2022-11-22T07:48:04.707Z,3.10
2022-11-22T07:51:18.784Z,2.50
2022-11-22T07:54:30.787Z,1.97
2022-11-22T07:57:43.330Z,2.60
2022-11-22T08:00:56.764Z,2.63
2022-11-22T08:04:20.823Z,3.00
2022-11-22T08:07:35.085Z,2.10
2022-11-22T08:10:46.802Z,2.13
2022-11-22T08:13:58.869Z,2.37
2022-11-22T08:17:10.879Z,2.40
2022-11-22T08:20:10.853Z,2.63
2022-11-22T08:23:36.854Z,2.40
2022-11-22T08:26:36.857Z,1.93
2022-11-22T08:29:49.840Z,1.97
2022-11-22T08:33:01.860Z,2.50
2022-11-22T08:36:14.040Z,2.10
2022-11-22T08:39:29.198Z,1.95
2022-11-22T08:42:40.928Z,2.00
2022-11-22T08:45:40.935Z,2.30
2022-11-22T08:48:52.920Z,2.13
2022-11-22T08:51:53.979Z,1.83
2022-11-22T08:55:19.932Z,2.10
2022-11-22T08:58:20.021Z,1.77
2022-11-22T09:01:44.028Z,1.55
2022-11-22T09:04:47.025Z,1.43
2022-11-22T09:11:13.076Z,1.90
2022-11-22T09:14:24.955Z,1.60
2022-11-22T09:17:25.005Z,2.30
2022-11-22T09:20:37.071Z,2.80
2022-11-22T09:23:37.060Z,1.40
2022-11-22T09:27:03.026Z,2.47
2022-11-22T09:30:03.084Z,1.50
2022-11-22T09:33:15.111Z,2.10
2022-11-22T09:36:27.140Z,1.73
2022-11-22T09:39:41.452Z,2.50
2022-11-22T09:42:54.145Z,1.63
2022-11-22T09:46:22.079Z,2.30
2022-11-22T09:49:40.174Z,1.53
2022-11-22T09:53:04.203Z,1.60
2022-11-22T09:56:16.105Z,2.10
2022-11-22T09:59:40.128Z,1.65
2022-11-22T10:03:00.447Z,1.70
2022-11-22T10:06:19.180Z,1.90
2022-11-22T10:09:33.428Z,2.00
2022-11-22T10:12:59.221Z,1.50
2022-11-22T10:16:11.256Z,1.60
2022-11-22T10:19:37.216Z,1.27
2022-11-22T10:22:49.199Z,1.45
2022-11-22T10:26:13.271Z,1.60
2022-11-22T10:29:28.635Z,1.37
2022-11-22T10:32:52.276Z,1.70
2022-11-22T10:36:08.251Z,1.60
2022-11-22T10:39:44.313Z,1.85
2022-11-22T10:42:59.372Z,1.60
2022-11-22T10:46:25.289Z,2.27
2022-11-22T10:49:38.290Z,1.50
2022-11-22T10:53:04.375Z,1.10
2022-11-22T10:56:17.311Z,1.47
2022-11-22T10:59:47.307Z,1.33
2022-11-22T11:03:05.394Z,1.27
2022-11-22T11:06:50.001Z,1.40
2022-11-22T11:13:08.384Z,1.30
2022-11-22T11:16:23.408Z,1.23
2022-11-22T11:19:47.372Z,1.47
2022-11-22T11:23:14.415Z,1.20
2022-11-22T11:26:40.413Z,1.17
2022-11-22T11:30:01.463Z,1.23
2022-11-22T11:33:28.482Z,1.57
2022-11-22T11:36:40.421Z,1.23
2022-11-22T11:40:05.536Z,1.67
2022-11-22T11:46:17.884Z,1.50
2022-11-22T11:49:41.901Z,1.40
2022-11-22T11:52:53.942Z,1.23
2022-11-22T11:56:05.942Z,1.43
2022-11-22T11:59:17.899Z,1.20
2022-11-22T12:02:45.092Z,1.37
2022-11-22T12:06:10.016Z,1.50
2022-11-22T12:09:22.043Z,1.20
2022-11-22T12:12:52.038Z,1.47
2022-11-22T12:16:05.026Z,1.77
2022-11-22T12:19:31.045Z,1.20
2022-11-22T12:22:49.997Z,1.47
2022-11-22T12:26:08.087Z,1.80
2022-11-22T12:29:19.983Z,1.17
2022-11-22T12:32:44.206Z,1.47
2022-11-22T12:35:58.095Z,1.80
2022-11-22T12:39:22.105Z,1.40
2022-11-22T12:42:34.142Z,1.60
2022-11-22T12:45:58.119Z,1.80
2022-11-22T12:49:13.109Z,1.40
2022-11-22T12:52:39.136Z,1.40
2022-11-22T12:55:51.151Z,1.40
2022-11-22T12:59:15.108Z,1.10
2022-11-22T13:02:29.172Z,1.27
2022-11-22T13:05:54.111Z,1.17
2022-11-22T13:09:21.127Z,1.17
2022-11-22T13:12:46.224Z,0.90
2022-11-22T13:15:58.215Z,1.20
2022-11-22T13:19:22.150Z,1.00
2022-11-22T13:22:35.233Z,1.53
2022-11-22T13:26:02.169Z,0.90
2022-11-22T13:29:14.211Z,0.90
2022-11-22T13:32:41.286Z,1.03
2022-11-22T13:35:54.217Z,1.10
2022-11-22T13:39:18.200Z,1.00
2022-11-22T13:42:32.216Z,1.03
2022-11-22T13:46:00.347Z,1.13
2022-11-22T13:49:19.320Z,1.30
2022-11-22T13:52:53.363Z,1.17
2022-11-22T13:56:05.305Z,0.87
2022-11-22T13:59:35.402Z,0.83
2022-11-22T14:02:47.292Z,0.73
2022-11-22T14:06:11.378Z,1.43
2022-11-22T14:09:42.382Z,1.30
2022-11-22T14:13:12.379Z,1.20
2022-11-22T14:16:33.352Z,1.10
2022-11-22T14:19:58.490Z,0.97
2022-11-22T14:23:11.384Z,1.00
2022-11-22T14:26:39.449Z,1.00
2022-11-22T14:30:09.427Z,0.93
2022-11-22T14:33:41.441Z,0.80
2022-11-22T14:36:41.485Z,1.40
2022-11-22T14:40:15.543Z,1.47
2022-11-22T14:43:29.439Z,0.90
2022-11-22T14:46:54.378Z,1.30
2022-11-22T14:50:07.438Z,1.37
2022-11-22T14:53:32.478Z,1.10
2022-11-22T14:56:45.456Z,1.20
2022-11-22T15:00:14.532Z,1.00
2022-11-22T15:03:34.516Z,1.10
2022-11-22T15:09:18.220Z,1.20
2022-11-22T15:10:18.569Z,0.93
2022-11-22T15:13:57.546Z,1.30
2022-11-22T16:00:09.746Z,1.00
2022-11-22T16:03:39.732Z,1.40
2022-11-22T16:06:51.720Z,1.13
2022-11-22T16:10:05.765Z,1.13
2022-11-22T16:13:19.712Z,1.17
2022-11-22T16:16:44.775Z,0.93
2022-11-22T16:19:44.791Z,0.80
2022-11-22T16:22:56.728Z,1.30
2022-11-22T16:26:08.737Z,1.30
2022-11-22T16:29:42.774Z,1.30
2022-11-22T16:32:43.328Z,1.23
2022-11-22T16:35:55.781Z,1.27
2022-11-22T16:39:07.773Z,1.30
2022-11-22T16:42:32.770Z,0.85
2022-11-22T16:45:46.926Z,1.25
2022-11-22T16:49:01.905Z,1.13
2022-11-22T16:52:13.812Z,1.40
2022-11-22T16:55:38.861Z,0.97
2022-11-22T16:58:38.853Z,1.00
2022-11-22T17:02:05.901Z,1.17
2022-11-22T17:05:05.920Z,1.20
2022-11-22T17:08:33.862Z,0.97
2022-11-22T17:11:45.872Z,0.90
2022-11-22T17:14:57.959Z,1.47
2022-11-22T17:18:11.898Z,1.27
2022-11-22T17:21:38.226Z,0.75
2022-11-22T17:24:37.903Z,0.70
2022-11-22T17:27:54.001Z,1.40
2022-11-22T17:30:50.018Z,1.10
2022-11-22T17:34:16.017Z,1.40
2022-11-22T17:37:15.982Z,0.87
2022-11-22T17:40:28.991Z,1.30
2022-11-22T17:43:31.973Z,1.20
2022-11-22T17:46:56.068Z,1.10
2022-11-22T17:50:09.065Z,1.10
2022-11-22T17:53:34.197Z,0.90
2022-11-22T17:56:34.008Z,1.20
2022-11-22T17:59:46.075Z,1.37
2022-11-22T18:02:59.002Z,1.00
2022-11-22T18:06:24.144Z,1.10
2022-11-22T18:09:24.078Z,1.10
2022-11-22T18:12:46.993Z,1.20
2022-11-22T18:15:42.099Z,0.80
2022-11-22T18:19:06.123Z,1.00
2022-11-22T18:22:20.147Z,1.10
2022-11-22T18:25:32.097Z,1.30
2022-11-22T18:28:35.196Z,1.73
2022-11-22T18:31:52.693Z,1.27
2022-11-22T18:35:02.193Z,0.93
2022-11-22T18:38:27.186Z,1.10
2022-11-22T18:41:39.170Z,1.17
2022-11-22T18:44:52.148Z,1.30
2022-11-22T18:47:52.210Z,1.80
2022-11-22T18:51:04.167Z,1.70
2022-11-22T18:54:17.265Z,1.00
2022-11-22T18:57:29.241Z,1.20
2022-11-22T19:00:42.238Z,1.35
2022-11-22T19:04:07.281Z,1.30
2022-11-22T19:07:10.241Z,1.20
2022-11-22T19:10:36.334Z,1.53
2022-11-22T19:13:48.346Z,1.60
2022-11-22T19:17:00.324Z,1.57
2022-11-22T19:20:00.378Z,1.13
2022-11-22T19:23:12.349Z,1.20
2022-11-22T19:26:29.312Z,1.03
2022-11-22T19:29:41.354Z,1.10
2022-11-22T19:32:53.346Z,1.20
2022-11-22T19:36:21.310Z,1.43
2022-11-22T19:39:34.358Z,1.53
2022-11-22T19:43:00.507Z,1.40
2022-11-22T19:46:00.414Z,1.37
2022-11-22T19:49:24.356Z,1.30
2022-11-22T19:52:24.480Z,1.13
2022-11-22T19:55:36.399Z,1.33
2022-11-22T19:58:49.396Z,1.80
2022-11-22T20:02:02.401Z,1.95
2022-11-22T20:05:16.555Z,1.50
2022-11-22T20:08:16.566Z,1.80
2022-11-22T20:11:40.482Z,1.90
2022-11-22T20:14:54.462Z,1.60
2022-11-22T20:18:18.503Z,1.60
2022-11-22T20:21:30.446Z,1.60
2022-11-22T20:24:43.496Z,1.95
2022-11-22T20:27:43.472Z,1.60
2022-11-22T20:31:08.490Z,2.23
2022-11-22T20:34:23.524Z,2.07
2022-11-22T20:37:35.513Z,1.93
2022-11-22T20:40:35.585Z,1.67
2022-11-22T20:43:59.696Z,1.73
2022-11-22T20:47:13.628Z,2.07
2022-11-22T20:50:26.596Z,1.60
2022-11-22T20:53:26.618Z,2.10
2022-11-22T20:56:38.627Z,2.27
2022-11-22T20:59:41.598Z,2.13
2022-11-22T21:03:06.591Z,2.70
2022-11-22T21:06:18.622Z,2.00
2022-11-22T21:09:30.617Z,2.57
2022-11-22T21:12:30.626Z,2.23
2022-11-22T21:15:43.677Z,2.17
2022-11-22T21:18:57.631Z,2.57
2022-11-22T21:22:10.735Z,2.90
2022-11-22T21:25:11.673Z,2.50
2022-11-22T21:28:23.862Z,2.57
2022-11-22T21:31:35.760Z,2.60
2022-11-22T21:35:00.746Z,2.47
2022-11-22T21:38:00.754Z,2.60
2022-11-22T21:41:39.693Z,2.97
2022-11-22T21:44:25.775Z,3.50
2022-11-22T21:47:37.755Z,3.10
2022-11-22T21:50:54.732Z,2.90
2022-11-22T21:54:20.842Z,3.10
2022-11-22T21:57:20.754Z,3.30
2022-11-22T22:00:34.809Z,3.17
2022-11-22T22:03:46.862Z,4.40
2022-11-22T22:07:00.866Z,3.43
2022-11-22T22:10:12.869Z,3.50
2022-11-22T22:13:12.789Z,3.13
2022-11-22T22:16:36.803Z,3.10
2022-11-22T22:19:36.871Z,3.70
2022-11-22T22:23:02.901Z,3.70
2022-11-22T22:26:02.944Z,2.93
2022-11-22T22:29:26.922Z,4.40
2022-11-22T22:32:26.919Z,4.00
2022-11-22T22:35:38.902Z,3.57
2022-11-22T22:38:52.880Z,3.20
2022-11-22T22:42:04.945Z,3.63
2022-11-22T22:45:16.944Z,3.20
2022-11-22T22:48:41.004Z,3.55
2022-11-22T22:51:52.931Z,3.30
2022-11-22T22:55:17.935Z,3.20
2022-11-22T22:58:21.863Z,3.47
2022-11-22T23:01:42.982Z,3.37
2022-11-22T23:04:45.954Z,3.57
2022-11-22T23:07:58.104Z,3.30
2022-11-22T23:11:12.013Z,3.27
2022-11-22T23:14:36.086Z,3.77
2022-11-22T23:17:37.029Z,3.63
2022-11-22T23:20:49.051Z,3.53
2022-11-22T23:23:49.030Z,3.50
2022-11-22T23:27:15.083Z,3.70
2022-11-22T23:30:15.215Z,3.73
2022-11-22T23:33:27.081Z,3.83
2022-11-22T23:36:40.860Z,3.70
2022-11-22T23:39:53.151Z,4.83
2022-11-22T23:43:09.132Z,3.70
2022-11-22T23:46:33.134Z,3.73
2022-11-22T23:49:36.176Z,3.53
2022-11-22T23:53:03.120Z,3.70
2022-11-22T23:56:03.164Z,3.87
2022-11-22T23:59:29.535Z,3.53
